createdAt,value
2017-07-16T00:01:29.151Z,17.57
2017-07-16T00:03:56.660Z,15.50
2017-07-16T00:06:24.158Z,16.20
2017-07-16T00:08:52.030Z,15.37
2017-07-16T00:11:19.537Z,14.57
2017-07-16T00:13:47.047Z,13.40
2017-07-16T00:16:14.853Z,13.83
2017-07-16T00:18:42.359Z,14.40
2017-07-16T00:21:10.647Z,14.30
2017-07-16T00:23:38.429Z,14.53
2017-07-16T00:26:05.943Z,13.07
2017-07-16T00:28:33.451Z,14.00
2017-07-16T00:31:01.309Z,13.60
2017-07-16T00:33:28.822Z,13.70
2017-07-16T00:35:57.234Z,13.60
2017-07-16T00:38:25.832Z,14.10
2017-07-16T00:40:53.341Z,14.40
2017-07-16T00:43:20.840Z,13.80
2017-07-16T00:45:48.736Z,14.03
2017-07-16T00:48:16.250Z,13.00
2017-07-16T00:50:44.519Z,12.63
2017-07-16T00:53:12.319Z,13.93
2017-07-16T00:55:39.831Z,13.37
2017-07-16T00:58:07.329Z,12.87
2017-07-16T01:00:35.933Z,14.17
2017-07-16T01:03:04.056Z,13.57
2017-07-16T01:05:31.564Z,15.00
2017-07-16T01:07:59.430Z,13.07
2017-07-16T01:10:26.948Z,13.20
2017-07-16T01:12:54.455Z,12.83
2017-07-16T01:15:22.245Z,13.40
2017-07-16T01:17:49.758Z,13.90
2017-07-16T01:20:18.026Z,12.73
2017-07-16T01:22:47.774Z,13.40
2017-07-16T01:25:15.275Z,13.60
2017-07-16T01:27:42.792Z,12.70
2017-07-16T01:30:10.650Z,13.30
2017-07-16T01:32:38.162Z,15.87
2017-07-16T01:35:05.687Z,15.90
2017-07-16T01:37:33.521Z,16.63
2017-07-16T01:40:01.030Z,15.43
2017-07-16T01:42:28.530Z,12.87
2017-07-16T01:44:57.144Z,13.27
2017-07-16T01:47:26.567Z,9.70
2017-07-16T01:49:54.084Z,9.17
2017-07-16T01:52:22.648Z,11.33
2017-07-16T01:54:50.916Z,9.63
2017-07-16T01:57:18.441Z,10.03
2017-07-16T01:59:47.226Z,12.00
2017-07-16T02:02:14.732Z,13.33
2017-07-16T02:04:42.239Z,16.80
2017-07-16T02:07:10.065Z,14.50
2017-07-16T02:09:38.355Z,13.50
2017-07-16T02:12:05.855Z,16.20
2017-07-16T02:14:33.649Z,14.73
2017-07-16T02:17:01.155Z,15.53
2017-07-16T02:19:28.659Z,14.63
2017-07-16T02:21:56.465Z,14.40
2017-07-16T02:24:24.736Z,15.37
2017-07-16T02:26:53.022Z,15.50
2017-07-16T02:29:20.825Z,13.30
2017-07-16T02:31:48.375Z,14.53
2017-07-16T02:34:15.888Z,14.03
2017-07-16T02:36:44.499Z,15.63
2017-07-16T02:39:12.027Z,13.83
2017-07-16T02:41:39.549Z,16.40
2017-07-16T02:44:07.385Z,13.50
2017-07-16T02:46:34.910Z,14.63
2017-07-16T02:49:02.423Z,14.20
2017-07-16T02:51:30.866Z,15.10
2017-07-16T02:53:59.143Z,13.90
2017-07-16T02:56:27.412Z,13.83
2017-07-16T02:58:55.310Z,13.90
2017-07-16T03:01:22.819Z,14.17
2017-07-16T03:03:50.330Z,13.53
2017-07-16T03:06:18.200Z,12.50
2017-07-16T03:08:45.708Z,13.80
2017-07-16T03:11:13.212Z,14.67
2017-07-16T03:13:41.073Z,12.70
2017-07-16T03:16:08.579Z,13.73
2017-07-16T03:18:36.082Z,13.67
2017-07-16T03:21:04.697Z,13.27
2017-07-16T03:23:32.237Z,13.20
2017-07-16T03:25:59.736Z,13.33
2017-07-16T03:28:27.677Z,13.27
2017-07-16T03:30:55.209Z,14.33
2017-07-16T03:33:22.717Z,13.77
2017-07-16T03:35:50.510Z,12.67
2017-07-16T03:38:18.971Z,11.93
2017-07-16T03:40:46.461Z,13.23
2017-07-16T03:43:15.029Z,13.93
2017-07-16T03:45:42.554Z,13.30
2017-07-16T03:48:10.067Z,13.03
2017-07-16T03:50:38.800Z,12.77
2017-07-16T03:53:06.305Z,13.47
2017-07-16T03:55:34.610Z,13.10
2017-07-16T03:58:03.205Z,11.23
2017-07-16T04:00:30.705Z,12.87
2017-07-16T04:02:59.205Z,11.30
2017-07-16T04:05:26.986Z,11.40
2017-07-16T04:07:55.259Z,12.23
2017-07-16T04:10:22.769Z,11.27
2017-07-16T04:12:50.612Z,10.97
2017-07-16T04:15:18.120Z,12.40
2017-07-16T04:17:45.618Z,10.93
2017-07-16T04:20:13.505Z,11.20
2017-07-16T04:22:41.005Z,11.50
2017-07-16T04:25:08.513Z,13.07
2017-07-16T04:27:36.411Z,11.97
2017-07-16T04:30:03.914Z,10.63
2017-07-16T04:32:32.212Z,11.40
2017-07-16T04:35:00.066Z,10.93
2017-07-16T04:37:28.401Z,10.43
2017-07-16T04:39:55.927Z,10.80
2017-07-16T04:42:23.719Z,10.80
2017-07-16T04:44:51.252Z,10.07
2017-07-16T04:47:18.774Z,10.77
2017-07-16T04:49:47.723Z,8.90
2017-07-16T04:52:15.229Z,10.63
2017-07-16T04:54:42.727Z,12.53
2017-07-16T04:57:10.617Z,11.90
2017-07-16T04:59:38.141Z,10.30
2017-07-16T05:02:06.419Z,10.77
2017-07-16T05:04:35.041Z,10.20
2017-07-16T05:07:02.578Z,10.17
2017-07-16T05:09:30.082Z,9.93
2017-07-16T05:12:02.460Z,9.87
2017-07-16T05:14:30.008Z,9.20
2017-07-16T05:16:57.516Z,9.97
2017-07-16T05:19:26.137Z,8.57
2017-07-16T05:21:53.645Z,8.87
2017-07-16T05:24:21.167Z,8.83
2017-07-16T05:26:48.990Z,9.40
2017-07-16T05:29:16.521Z,9.07
2017-07-16T05:31:44.036Z,9.10
2017-07-16T05:34:11.953Z,8.80
2017-07-16T05:36:39.463Z,8.93
2017-07-16T05:39:06.973Z,8.83
2017-07-16T05:41:34.833Z,9.20
2017-07-16T05:44:02.362Z,8.60
2017-07-16T05:46:29.865Z,9.10
2017-07-16T05:48:57.694Z,8.80
2017-07-16T05:51:25.224Z,8.50
2017-07-16T05:53:52.744Z,7.73
2017-07-16T05:56:20.557Z,7.47
2017-07-16T05:58:48.084Z,7.50
2017-07-16T06:01:15.590Z,7.20
2017-07-16T06:03:45.451Z,7.40
2017-07-16T06:06:12.985Z,7.53
2017-07-16T06:08:40.498Z,7.13
2017-07-16T06:11:08.392Z,6.50
2017-07-16T06:13:35.881Z,6.43
2017-07-16T06:16:03.413Z,7.00
2017-07-16T06:18:31.264Z,6.83
2017-07-16T06:20:58.794Z,6.20
2017-07-16T06:23:26.347Z,6.10
2017-07-16T06:25:54.920Z,6.73
2017-07-16T06:28:23.196Z,5.97
2017-07-16T06:30:51.419Z,6.83
2017-07-16T06:33:19.256Z,6.53
2017-07-16T06:35:47.528Z,8.70
2017-07-16T06:38:15.045Z,7.83
2017-07-16T06:40:42.999Z,6.47
2017-07-16T06:43:10.518Z,5.97
2017-07-16T06:45:38.816Z,5.90
2017-07-16T06:48:06.691Z,6.50
2017-07-16T06:50:34.207Z,5.97
2017-07-16T06:53:01.740Z,6.60
2017-07-16T06:55:29.588Z,5.80
2017-07-16T06:57:57.101Z,5.90
2017-07-16T07:00:25.378Z,6.07
2017-07-16T07:02:54.009Z,5.60
2017-07-16T07:05:21.537Z,6.30
2017-07-16T07:07:49.823Z,6.20
2017-07-16T07:10:17.633Z,6.43
2017-07-16T07:12:45.782Z,5.70
2017-07-16T07:15:13.321Z,5.93
2017-07-16T07:17:41.117Z,5.83
2017-07-16T07:20:09.645Z,5.40
2017-07-16T07:22:38.169Z,5.70
2017-07-16T07:25:05.999Z,5.20
2017-07-16T07:27:33.508Z,6.07
2017-07-16T07:30:00.998Z,5.70
2017-07-16T07:32:29.779Z,4.87
2017-07-16T07:34:57.319Z,5.47
2017-07-16T07:37:24.848Z,5.10
2017-07-16T07:39:52.727Z,5.20
2017-07-16T07:42:20.254Z,5.00
2017-07-16T07:44:48.563Z,4.80
2017-07-16T07:47:16.372Z,4.43
2017-07-16T07:49:43.878Z,5.30
2017-07-16T07:52:11.421Z,4.30
2017-07-16T07:54:39.254Z,4.20
2017-07-16T07:57:06.808Z,4.63
2017-07-16T07:59:34.328Z,4.43
2017-07-16T08:02:02.117Z,3.87
2017-07-16T08:04:29.636Z,4.40
2017-07-16T08:06:57.161Z,4.40
2017-07-16T08:09:25.082Z,3.80
2017-07-16T08:11:52.668Z,4.77
2017-07-16T08:14:20.189Z,4.23
2017-07-16T08:16:48.771Z,3.97
2017-07-16T08:19:17.261Z,3.70
2017-07-16T08:21:44.819Z,3.87
2017-07-16T08:24:13.648Z,4.20
2017-07-16T08:26:41.255Z,4.50
2017-07-16T08:29:09.727Z,3.50
2017-07-16T08:31:37.548Z,3.23
2017-07-16T08:34:05.057Z,3.83
2017-07-16T08:36:32.571Z,3.63
2017-07-16T08:39:00.427Z,3.50
2017-07-16T08:41:27.943Z,3.07
2017-07-16T08:43:55.469Z,3.10
2017-07-16T08:46:23.313Z,3.10
2017-07-16T08:48:50.849Z,3.10
2017-07-16T08:51:18.391Z,3.17
2017-07-16T08:53:47.166Z,3.27
2017-07-16T08:56:14.714Z,3.40
2017-07-16T08:58:42.214Z,3.43
2017-07-16T09:01:10.852Z,2.90
2017-07-16T09:03:38.363Z,2.40
2017-07-16T09:06:05.887Z,2.80
2017-07-16T09:08:33.734Z,3.10
2017-07-16T09:11:01.248Z,3.13
2017-07-16T09:13:28.800Z,2.80
2017-07-16T09:15:57.402Z,3.00
2017-07-16T09:18:24.951Z,3.03
2017-07-16T09:20:52.472Z,2.77
2017-07-16T09:23:20.311Z,3.27
2017-07-16T09:25:47.877Z,2.83
2017-07-16T09:28:15.414Z,3.20
2017-07-16T09:30:43.312Z,2.60
2017-07-16T09:33:10.839Z,3.23
2017-07-16T09:35:38.357Z,3.30
2017-07-16T09:38:06.184Z,2.93
2017-07-16T09:40:33.691Z,2.80
2017-07-16T09:43:01.261Z,4.47
2017-07-16T09:45:29.080Z,2.77
2017-07-16T09:47:57.567Z,3.50
2017-07-16T09:50:25.144Z,2.93
2017-07-16T09:52:53.023Z,2.57
2017-07-16T09:55:20.595Z,3.47
2017-07-16T09:57:48.183Z,3.23
2017-07-16T10:00:16.088Z,2.70
2017-07-16T10:02:43.608Z,3.10
2017-07-16T10:05:11.133Z,3.40
2017-07-16T10:07:38.974Z,2.50
2017-07-16T10:10:06.494Z,2.70
2017-07-16T10:12:34.001Z,2.43
2017-07-16T10:15:01.892Z,3.00
2017-07-16T10:17:29.422Z,2.87
2017-07-16T10:19:56.953Z,2.80
2017-07-16T10:22:25.756Z,2.30
2017-07-16T10:24:53.307Z,3.07
2017-07-16T10:27:20.975Z,3.03
2017-07-16T10:29:48.857Z,2.20
2017-07-16T10:32:16.385Z,3.00
2017-07-16T10:34:43.926Z,2.30
2017-07-16T10:37:11.868Z,2.40
2017-07-16T10:39:40.356Z,2.67
2017-07-16T10:42:07.890Z,2.70
2017-07-16T10:44:35.768Z,2.37
2017-07-16T10:47:03.291Z,2.50
2017-07-16T10:49:30.861Z,2.73
2017-07-16T10:51:58.755Z,1.90
2017-07-16T10:54:26.328Z,2.20
2017-07-16T10:56:57.102Z,2.07
2017-07-16T10:59:25.724Z,2.00
2017-07-16T11:01:53.277Z,2.33
2017-07-16T11:04:20.808Z,2.50
2017-07-16T11:06:48.729Z,2.20
2017-07-16T11:09:16.257Z,2.47
2017-07-16T11:11:43.788Z,2.60
2017-07-16T11:14:12.639Z,2.83
2017-07-16T11:16:40.220Z,2.07
2017-07-16T11:19:07.823Z,2.60
2017-07-16T11:21:35.691Z,2.40
2017-07-16T11:24:03.224Z,2.23
2017-07-16T11:26:30.788Z,2.80
2017-07-16T11:28:59.632Z,2.33
2017-07-16T11:31:27.228Z,3.83
2017-07-16T11:33:54.765Z,2.50
2017-07-16T11:36:22.641Z,2.90
2017-07-16T11:38:50.159Z,3.50
2017-07-16T11:41:17.727Z,3.20
2017-07-16T11:43:46.397Z,2.53
2017-07-16T11:46:13.948Z,2.10
2017-07-16T11:48:42.266Z,2.73
2017-07-16T11:51:10.144Z,2.10
2017-07-16T11:53:37.673Z,2.40
2017-07-16T11:56:05.225Z,2.60
2017-07-16T11:58:36.711Z,2.97
2017-07-16T12:01:04.234Z,2.20
2017-07-16T12:03:31.841Z,2.80
2017-07-16T12:06:00.019Z,2.83
2017-07-16T12:08:27.613Z,2.80
2017-07-16T12:10:55.896Z,2.57
2017-07-16T12:13:24.522Z,2.80
2017-07-16T12:15:52.028Z,2.17
2017-07-16T12:18:20.330Z,2.60
2017-07-16T12:20:48.230Z,2.50
2017-07-16T12:23:15.769Z,2.70
2017-07-16T12:25:43.298Z,2.20
2017-07-16T12:28:11.167Z,2.10
2017-07-16T12:30:38.715Z,2.10
2017-07-16T12:33:08.860Z,2.30
2017-07-16T12:35:37.508Z,2.87
2017-07-16T12:38:05.355Z,2.30
2017-07-16T12:40:32.935Z,2.30
2017-07-16T12:43:00.813Z,2.00
2017-07-16T12:45:28.319Z,3.00
2017-07-16T12:47:55.847Z,1.93
2017-07-16T12:50:24.465Z,2.10
2017-07-16T12:52:52.022Z,2.23
2017-07-16T12:55:19.594Z,1.70
2017-07-16T12:57:47.530Z,1.90
2017-07-16T13:00:15.821Z,1.93
2017-07-16T13:02:43.397Z,2.07
2017-07-16T13:05:11.226Z,1.73
2017-07-16T13:07:38.760Z,1.70
2017-07-16T13:10:06.282Z,2.10
2017-07-16T13:12:34.108Z,2.30
2017-07-16T13:15:02.413Z,2.23
2017-07-16T13:17:30.729Z,2.00
2017-07-16T13:19:58.569Z,2.23
2017-07-16T13:22:26.085Z,1.80
2017-07-16T13:24:53.653Z,2.00
2017-07-16T13:27:21.680Z,2.10
2017-07-16T13:29:49.227Z,1.90
2017-07-16T13:32:16.769Z,1.70
2017-07-16T13:34:44.720Z,2.00
2017-07-16T13:37:12.265Z,1.80
2017-07-16T13:39:39.775Z,2.33
2017-07-16T13:42:07.652Z,2.20
2017-07-16T13:44:35.169Z,1.63
2017-07-16T13:47:02.699Z,2.40
2017-07-16T13:49:30.520Z,1.93
2017-07-16T13:51:58.057Z,2.00
2017-07-16T13:54:26.338Z,1.70
2017-07-16T13:56:54.949Z,2.00
2017-07-16T13:59:22.463Z,1.77
2017-07-16T14:01:49.984Z,1.70
2017-07-16T14:04:17.806Z,2.00
2017-07-16T14:06:46.100Z,2.03
2017-07-16T14:09:13.603Z,3.40
2017-07-16T14:11:41.434Z,2.37
2017-07-16T14:14:08.956Z,1.80
2017-07-16T14:16:36.481Z,2.00
2017-07-16T14:19:04.341Z,1.83
2017-07-16T14:21:31.865Z,1.47
2017-07-16T14:23:59.373Z,2.10
2017-07-16T14:26:27.242Z,2.33
2017-07-16T14:28:54.763Z,2.10
2017-07-16T14:31:22.256Z,2.10
2017-07-16T14:33:50.110Z,1.60
2017-07-16T14:36:17.646Z,2.50
2017-07-16T14:38:45.170Z,2.30
2017-07-16T14:41:12.988Z,1.70
2017-07-16T14:43:40.519Z,2.17
2017-07-16T14:46:08.813Z,1.70
2017-07-16T14:48:36.623Z,1.80
2017-07-16T14:51:04.144Z,1.87
2017-07-16T14:53:31.725Z,1.50
2017-07-16T14:55:59.610Z,1.60
2017-07-16T14:58:27.127Z,1.30
2017-07-16T15:00:54.660Z,4.80
2017-07-16T15:03:22.567Z,2.10
2017-07-16T15:05:50.084Z,1.70
2017-07-16T15:08:17.602Z,1.70
2017-07-16T15:10:45.457Z,1.60
2017-07-16T15:13:12.961Z,1.70
2017-07-16T15:15:40.499Z,2.00
2017-07-16T15:18:08.358Z,1.50
2017-07-16T15:20:35.861Z,1.70
2017-07-16T15:23:03.364Z,1.40
2017-07-16T15:25:31.192Z,1.80
2017-07-16T15:27:59.467Z,1.60
2017-07-16T15:30:26.998Z,1.40
2017-07-16T15:32:54.853Z,1.70
2017-07-16T15:35:22.379Z,1.60
2017-07-16T15:37:49.901Z,2.97
2017-07-16T15:40:17.737Z,1.70
2017-07-16T15:42:45.298Z,1.87
2017-07-16T15:45:12.830Z,1.90
2017-07-16T15:47:40.658Z,2.23
2017-07-16T15:50:08.217Z,2.10
2017-07-16T15:52:35.756Z,2.50
2017-07-16T15:55:03.628Z,2.03
2017-07-16T15:57:31.144Z,1.83
2017-07-16T15:59:58.681Z,2.30
2017-07-16T16:02:27.323Z,2.40
2017-07-16T16:04:54.870Z,1.93
2017-07-16T16:07:22.405Z,1.90
2017-07-16T16:09:50.296Z,1.90
2017-07-16T16:12:17.812Z,3.10
2017-07-16T16:14:45.340Z,2.50
2017-07-16T16:17:13.177Z,2.10
2017-07-16T16:19:40.715Z,1.97
2017-07-16T16:22:08.239Z,1.97
2017-07-16T16:24:36.050Z,2.10
2017-07-16T16:27:03.580Z,2.60
2017-07-16T16:29:31.091Z,2.20
2017-07-16T16:31:58.967Z,2.23
2017-07-16T16:34:26.493Z,1.93
2017-07-16T16:36:54.022Z,2.20
2017-07-16T16:39:21.958Z,2.70
2017-07-16T16:41:49.489Z,1.90
2017-07-16T16:44:17.024Z,2.67
2017-07-16T16:46:44.936Z,1.90
2017-07-16T16:49:12.437Z,2.40
2017-07-16T16:51:40.003Z,2.90
2017-07-16T16:54:07.927Z,4.80
2017-07-16T16:56:35.442Z,2.60
2017-07-16T16:59:03.045Z,3.10
2017-07-16T17:01:30.888Z,2.70
2017-07-16T17:03:58.418Z,1.93
2017-07-16T17:06:25.962Z,2.30
2017-07-16T17:08:53.802Z,2.00
2017-07-16T17:11:21.327Z,2.30
2017-07-16T17:13:49.635Z,2.63
2017-07-16T17:16:17.505Z,3.10
2017-07-16T17:18:45.039Z,2.70
2017-07-16T17:21:12.595Z,2.63
2017-07-16T17:23:40.495Z,2.47
2017-07-16T17:26:08.022Z,2.30
2017-07-16T17:28:35.571Z,2.67
2017-07-16T17:31:03.484Z,2.77
2017-07-16T17:33:31.007Z,2.50
2017-07-16T17:35:58.538Z,2.67
2017-07-16T17:38:26.574Z,3.03
2017-07-16T17:40:54.111Z,2.87
2017-07-16T17:43:21.639Z,3.30
2017-07-16T17:45:49.567Z,3.37
2017-07-16T17:48:17.104Z,3.83
2017-07-16T17:50:44.629Z,4.33
2017-07-16T17:53:12.480Z,3.87
2017-07-16T17:55:40.020Z,4.20
2017-07-16T17:58:07.609Z,4.00
2017-07-16T18:00:35.419Z,3.90
2017-07-16T18:03:02.936Z,3.23
2017-07-16T18:05:30.455Z,3.70
2017-07-16T18:07:58.320Z,2.97
2017-07-16T18:10:25.872Z,2.97
2017-07-16T18:12:53.407Z,3.40
2017-07-16T18:15:21.228Z,3.00
2017-07-16T18:17:48.766Z,3.17
2017-07-16T18:20:16.289Z,3.20
2017-07-16T18:22:44.893Z,3.07
2017-07-16T18:25:12.410Z,3.53
2017-07-16T18:27:39.935Z,3.20
2017-07-16T18:30:07.810Z,3.20
2017-07-16T18:32:35.358Z,2.70
2017-07-16T18:35:03.228Z,3.20
2017-07-16T18:37:31.070Z,3.73
2017-07-16T18:39:58.608Z,3.50
2017-07-16T18:42:26.902Z,3.63
2017-07-16T18:44:54.851Z,3.57
2017-07-16T18:47:23.154Z,3.43
2017-07-16T18:49:50.719Z,3.03
2017-07-16T18:52:18.654Z,2.87
2017-07-16T18:54:46.209Z,2.90
2017-07-16T18:57:13.753Z,3.80
2017-07-16T18:59:41.581Z,3.60
2017-07-16T19:02:09.152Z,3.50
2017-07-16T19:04:36.684Z,3.47
2017-07-16T19:07:04.555Z,3.60
2017-07-16T19:09:32.124Z,3.07
2017-07-16T19:11:59.694Z,2.80
2017-07-16T19:14:27.506Z,3.00
2017-07-16T19:16:55.027Z,2.97
2017-07-16T19:19:22.552Z,3.47
2017-07-16T19:21:50.470Z,3.50
2017-07-16T19:24:18.831Z,3.60
2017-07-16T19:26:46.371Z,3.23
2017-07-16T19:29:14.201Z,2.97
2017-07-16T19:31:41.738Z,3.50
2017-07-16T19:34:09.306Z,3.10
2017-07-16T19:36:37.125Z,3.17
2017-07-16T19:39:05.486Z,3.40
2017-07-16T19:41:33.046Z,3.20
2017-07-16T19:44:01.784Z,3.00
2017-07-16T19:46:29.314Z,3.23
2017-07-16T19:48:56.872Z,3.60
2017-07-16T19:51:24.808Z,3.23
2017-07-16T19:53:56.434Z,3.60
2017-07-16T19:56:24.946Z,3.97
2017-07-16T19:58:52.541Z,4.17
2017-07-16T20:01:20.270Z,3.60
2017-07-16T20:03:48.329Z,3.60
2017-07-16T20:06:15.956Z,3.00
2017-07-16T20:08:43.527Z,4.07
2017-07-16T20:11:16.811Z,4.67
2017-07-16T20:13:44.744Z,3.60
2017-07-16T20:16:12.593Z,6.37
2017-07-16T20:18:40.438Z,4.00
2017-07-16T20:21:07.985Z,4.80
2017-07-16T20:23:41.685Z,3.83
2017-07-16T20:26:11.199Z,4.10
2017-07-16T20:28:38.741Z,4.00
2017-07-16T20:31:06.575Z,3.67
2017-07-16T20:33:34.148Z,3.83
2017-07-16T20:36:01.749Z,3.60
2017-07-16T20:38:30.525Z,4.20
2017-07-16T20:40:58.056Z,3.70
2017-07-16T20:43:26.350Z,3.67
2017-07-16T20:45:55.170Z,3.63
2017-07-16T20:48:22.711Z,4.37
2017-07-16T20:50:50.241Z,3.80
2017-07-16T20:53:18.157Z,4.00
2017-07-16T20:55:45.661Z,3.93
2017-07-16T20:58:13.187Z,3.53
2017-07-16T21:00:41.075Z,3.93
2017-07-16T21:03:08.578Z,4.33
2017-07-16T21:05:36.131Z,4.17
2017-07-16T21:08:03.970Z,4.23
2017-07-16T21:10:31.514Z,4.17
2017-07-16T21:12:59.037Z,3.80
2017-07-16T21:15:26.887Z,4.30
2017-07-16T21:17:54.422Z,4.00
2017-07-16T21:20:21.967Z,3.47
2017-07-16T21:22:49.838Z,3.90
2017-07-16T21:25:17.372Z,3.70
2017-07-16T21:27:44.885Z,3.60
2017-07-16T21:30:13.520Z,8.50
2017-07-16T21:32:41.036Z,4.90
2017-07-16T21:35:09.309Z,4.70
2017-07-16T21:37:37.931Z,4.43
2017-07-16T21:40:06.487Z,3.63
2017-07-16T21:42:34.032Z,3.70
2017-07-16T21:45:02.594Z,3.20
2017-07-16T21:47:30.118Z,3.93
2017-07-16T21:49:57.633Z,3.30
2017-07-16T21:52:25.457Z,3.70
2017-07-16T21:54:52.986Z,4.40
2017-07-16T21:57:20.546Z,3.70
2017-07-16T21:59:49.152Z,3.50
2017-07-16T22:02:16.693Z,3.53
2017-07-16T22:04:44.221Z,3.80
2017-07-16T22:07:12.079Z,3.73
2017-07-16T22:09:39.639Z,4.83
2017-07-16T22:12:07.264Z,3.27
2017-07-16T22:14:35.154Z,3.70
2017-07-16T22:17:02.726Z,3.63
2017-07-16T22:19:30.257Z,3.50
2017-07-16T22:21:58.059Z,3.47
2017-07-16T22:24:25.571Z,4.40
2017-07-16T22:26:53.210Z,4.07
2017-07-16T22:29:21.076Z,3.63
2017-07-16T22:31:48.618Z,3.70
2017-07-16T22:34:16.371Z,3.50
2017-07-16T22:36:44.202Z,3.87
2017-07-16T22:39:11.706Z,4.47
2017-07-16T22:41:40.030Z,3.57
2017-07-16T22:44:07.904Z,4.10
2017-07-16T22:46:35.436Z,4.27
2017-07-16T22:49:03.046Z,4.33
2017-07-16T22:51:30.873Z,3.70
2017-07-16T22:53:58.424Z,4.37
2017-07-16T22:56:25.940Z,3.90
2017-07-16T22:58:53.732Z,3.80
2017-07-16T23:01:21.264Z,3.83
2017-07-16T23:03:48.787Z,3.40
2017-07-16T23:06:16.622Z,4.47
2017-07-16T23:08:44.923Z,3.90
2017-07-16T23:11:12.439Z,4.27
2017-07-16T23:13:40.284Z,3.70
2017-07-16T23:16:07.815Z,3.90
2017-07-16T23:18:35.338Z,3.80
2017-07-16T23:21:04.996Z,4.03
2017-07-16T23:23:32.545Z,3.70
2017-07-16T23:26:00.057Z,3.70
2017-07-16T23:28:27.869Z,4.20
2017-07-16T23:30:55.393Z,4.47
2017-07-16T23:33:23.662Z,4.27
2017-07-16T23:35:51.488Z,4.20
2017-07-16T23:38:19.048Z,3.70
2017-07-16T23:40:46.545Z,4.00
2017-07-16T23:43:14.347Z,4.00
2017-07-16T23:45:41.874Z,3.90
2017-07-16T23:48:09.408Z,4.27
2017-07-16T23:50:37.228Z,3.97
2017-07-16T23:53:05.692Z,4.27
2017-07-16T23:55:33.205Z,4.40
2017-07-16T23:58:01.064Z,4.50
